sensor_id;sensor_type;location;lat;lon;timestamp;pressure;altitude;pressure_sealevel;temperature;humidity
62418;BME280;48456;54.242;10.280;2023-08-06T00:01:02;100658.09;;;13.66;100.00
62418;BME280;48456;54.242;10.280;2023-08-06T00:03:29;100665.34;;;13.57;100.00
62418;BME280;48456;54.242;10.280;2023-08-06T00:05:55;100659.22;;;13.54;100.00
62418;BME280;48456;54.242;10.280;2023-08-06T00:08:22;100651.31;;;13.49;100.00
62418;BME280;48456;54.242;10.280;2023-08-06T00:10:48;100645.22;;;13.42;100.00
62418;BME280;48456;54.242;10.280;2023-08-06T00:13:15;100645.25;;;13.39;100.00
62418;BME280;48456;54.242;10.280;2023-08-06T00:15:42;100644.44;;;13.35;100.00
62418;BME280;48456;54.242;10.280;2023-08-06T00:18:08;100640.91;;;13.35;100.00
62418;BME280;48456;54.242;10.280;2023-08-06T00:20:35;100642.72;;;13.33;100.00
62418;BME280;48456;54.242;10.280;2023-08-06T00:23:01;100636.56;;;13.31;100.00
62418;BME280;48456;54.242;10.280;2023-08-06T00:25:28;100639.28;;;13.29;100.00
62418;BME280;48456;54.242;10.280;2023-08-06T00:27:55;100639.34;;;13.24;100.00
62418;BME280;48456;54.242;10.280;2023-08-06T00:30:22;100639.38;;;13.23;100.00
62418;BME280;48456;54.242;10.280;2023-08-06T00:32:49;100635.78;;;13.24;100.00
62418;BME280;48456;54.242;10.280;2023-08-06T00:35:15;100639.34;;;13.24;100.00
62418;BME280;48456;54.242;10.280;2023-08-06T00:37:42;100634.94;;;13.23;100.00
62418;BME280;48456;54.242;10.280;2023-08-06T00:40:08;100642.88;;;13.25;100.00
62418;BME280;48456;54.242;10.280;2023-08-06T00:42:35;100638.44;;;13.24;100.00
62418;BME280;48456;54.242;10.280;2023-08-06T00:45:02;100642.88;;;13.25;100.00
62418;BME280;48456;54.242;10.280;2023-08-06T00:47:29;100646.41;;;13.24;100.00
62418;BME280;48456;54.242;10.280;2023-08-06T00:49:55;100647.34;;;13.21;100.00
62418;BME280;48456;54.242;10.280;2023-08-06T00:52:22;100649.16;;;13.21;100.00
62418;BME280;48456;54.242;10.280;2023-08-06T00:54:48;100652.56;;;13.28;100.00
62418;BME280;48456;54.242;10.280;2023-08-06T00:57:15;100659.41;;;13.41;100.00
62418;BME280;48456;54.242;10.280;2023-08-06T00:59:41;100658.34;;;13.51;100.00
62418;BME280;48456;54.242;10.280;2023-08-06T01:02:08;100664.44;;;13.58;100.00
62418;BME280;48456;54.242;10.280;2023-08-06T01:04:34;100657.34;;;13.59;100.00
62418;BME280;48456;54.242;10.280;2023-08-06T01:12:34;100646.72;;;13.57;100.00
62418;BME280;48456;54.242;10.280;2023-08-06T01:15:14;100635.19;;;13.58;100.00
62418;BME280;48456;54.242;10.280;2023-08-06T01:17:41;100640.41;;;13.64;100.00
62418;BME280;48456;54.242;10.280;2023-08-06T01:20:08;100628.75;;;13.72;100.00
62418;BME280;48456;54.242;10.280;2023-08-06T01:22:35;100635.81;;;13.73;100.00
62418;BME280;48456;54.242;10.280;2023-08-06T01:25:01;100626.13;;;13.70;100.00
62418;BME280;48456;54.242;10.280;2023-08-06T01:27:28;100619.03;;;13.69;100.00
62418;BME280;48456;54.242;10.280;2023-08-06T01:30:02;100620.84;;;13.67;100.00
62418;BME280;48456;54.242;10.280;2023-08-06T01:32:31;100619.97;;;13.67;100.00
62418;BME280;48456;54.242;10.280;2023-08-06T01:34:58;100625.38;;;13.63;100.00
62418;BME280;48456;54.242;10.280;2023-08-06T01:37:25;100618.25;;;13.64;100.00
62418;BME280;48456;54.242;10.280;2023-08-06T01:39:51;100621.03;;;13.59;100.00
62418;BME280;48456;54.242;10.280;2023-08-06T01:42:18;100614.00;;;13.55;100.00
62418;BME280;48456;54.242;10.280;2023-08-06T01:44:44;100614.00;;;13.55;100.00
62418;BME280;48456;54.242;10.280;2023-08-06T01:47:11;100603.41;;;13.54;100.00
62418;BME280;48456;54.242;10.280;2023-08-06T01:49:37;100611.34;;;13.55;100.00
62418;BME280;48456;54.242;10.280;2023-08-06T01:52:04;100603.31;;;13.58;100.00
62418;BME280;48456;54.242;10.280;2023-08-06T01:54:30;100595.31;;;13.60;100.00
62418;BME280;48456;54.242;10.280;2023-08-06T01:56:57;100590.81;;;13.63;100.00
62418;BME280;48456;54.242;10.280;2023-08-06T01:59:24;100591.69;;;13.62;100.00
62418;BME280;48456;54.242;10.280;2023-08-06T02:01:51;100579.28;;;13.64;100.00
62418;BME280;48456;54.242;10.280;2023-08-06T02:04:18;100587.28;;;13.63;100.00
62418;BME280;48456;54.242;10.280;2023-08-06T02:06:44;100575.88;;;13.58;100.00
62418;BME280;48456;54.242;10.280;2023-08-06T02:09:11;100572.38;;;13.54;100.00
62418;BME280;48456;54.242;10.280;2023-08-06T02:11:37;100575.03;;;13.54;100.00
62418;BME280;48456;54.242;10.280;2023-08-06T02:14:03;100581.28;;;13.51;100.00
62418;BME280;48456;54.242;10.280;2023-08-06T02:16:30;100582.22;;;13.49;100.00
62418;BME280;48456;54.242;10.280;2023-08-06T02:18:56;100570.75;;;13.48;100.00
62418;BME280;48456;54.242;10.280;2023-08-06T02:21:23;100574.25;;;13.47;100.00
62418;BME280;48456;54.242;10.280;2023-08-06T02:23:49;100571.59;;;13.49;100.00
62418;BME280;48456;54.242;10.280;2023-08-06T02:26:16;100577.81;;;13.49;100.00
62418;BME280;48456;54.242;10.280;2023-08-06T02:28:42;100571.56;;;13.50;100.00
62418;BME280;48456;54.242;10.280;2023-08-06T02:31:09;100568.88;;;13.54;100.00
62418;BME280;48456;54.242;10.280;2023-08-06T02:33:35;100563.47;;;13.57;100.00
62418;BME280;48456;54.242;10.280;2023-08-06T02:36:02;100560.75;;;13.60;100.00
62418;BME280;48456;54.242;10.280;2023-08-06T02:38:32;100551.03;;;13.59;100.00
62418;BME280;48456;54.242;10.280;2023-08-06T02:41:01;100564.28;;;13.60;100.00
62418;BME280;48456;54.242;10.280;2023-08-06T02:43:28;100558.09;;;13.60;100.00
62418;BME280;48456;54.242;10.280;2023-08-06T02:45:58;100553.63;;;13.62;100.00
62418;BME280;48456;54.242;10.280;2023-08-06T02:48:24;100559.78;;;13.64;100.00
62418;BME280;48456;54.242;10.280;2023-08-06T02:50:51;100558.94;;;13.62;100.00
62418;BME280;48456;54.242;10.280;2023-08-06T02:53:17;100553.59;;;13.63;100.00
62418;BME280;48456;54.242;10.280;2023-08-06T02:55:47;100556.28;;;13.63;100.00
62418;BME280;48456;54.242;10.280;2023-08-06T02:58:14;100555.38;;;13.63;100.00
62418;BME280;48456;54.242;10.280;2023-08-06T03:00:41;100548.31;;;13.62;100.00
62418;BME280;48456;54.242;10.280;2023-08-06T03:03:08;100536.81;;;13.61;100.00
62418;BME280;48456;54.242;10.280;2023-08-06T03:05:34;100535.88;;;13.62;100.00
62418;BME280;48456;54.242;10.280;2023-08-06T03:08:01;100535.97;;;13.59;100.00
62418;BME280;48456;54.242;10.280;2023-08-06T03:10:27;100527.09;;;13.60;100.00
62418;BME280;48456;54.242;10.280;2023-08-06T03:12:54;100528.81;;;13.63;100.00
62418;BME280;48456;54.242;10.280;2023-08-06T03:15:20;100518.19;;;13.61;100.00
62418;BME280;48456;54.242;10.280;2023-08-06T03:17:47;100517.38;;;13.59;100.00
62418;BME280;48456;54.242;10.280;2023-08-06T03:20:13;100506.75;;;13.59;100.00
62418;BME280;48456;54.242;10.280;2023-08-06T03:22:40;100511.16;;;13.59;100.00
62418;BME280;48456;54.242;10.280;2023-08-06T03:25:06;100515.56;;;13.60;100.00
62418;BME280;48456;54.242;10.280;2023-08-06T03:27:33;100511.97;;;13.62;100.00
62418;BME280;48456;54.242;10.280;2023-08-06T03:29:59;100504.00;;;13.62;100.00
62418;BME280;48456;54.242;10.280;2023-08-06T03:32:27;100503.13;;;13.63;100.00
62418;BME280;48456;54.242;10.280;2023-08-06T03:34:53;100502.19;;;13.64;100.00
62418;BME280;48456;54.242;10.280;2023-08-06T03:37:20;100500.38;;;13.67;100.00
62418;BME280;48456;54.242;10.280;2023-08-06T03:39:46;100503.88;;;13.69;100.00
62418;BME280;48456;54.242;10.280;2023-08-06T03:42:13;100502.94;;;13.71;100.00
62418;BME280;48456;54.242;10.280;2023-08-06T03:44:39;100501.94;;;13.75;100.00
62418;BME280;48456;54.242;10.280;2023-08-06T03:47:05;100489.47;;;13.79;100.00
62418;BME280;48456;54.242;10.280;2023-08-06T03:49:32;100494.72;;;13.82;100.00
62418;BME280;48456;54.242;10.280;2023-08-06T03:51:59;100484.88;;;13.86;100.00
62418;BME280;48456;54.242;10.280;2023-08-06T03:54:25;100487.50;;;13.87;100.00
62418;BME280;48456;54.242;10.280;2023-08-06T03:56:51;100486.56;;;13.88;100.00
62418;BME280;48456;54.242;10.280;2023-08-06T03:59:18;100490.09;;;13.90;100.00
62418;BME280;48456;54.242;10.280;2023-08-06T04:01:44;100486.41;;;13.96;100.00
62418;BME280;48456;54.242;10.280;2023-08-06T04:04:11;100490.78;;;13.99;100.00
62418;BME280;48456;54.242;10.280;2023-08-06T04:06:37;100481.94;;;13.98;100.00
62418;BME280;48456;54.242;10.280;2023-08-06T04:09:04;100476.50;;;14.03;100.00
62418;BME280;48456;54.242;10.280;2023-08-06T04:11:30;100475.59;;;14.04;100.00
62418;BME280;48456;54.242;10.280;2023-08-06T04:14:00;100469.34;;;14.05;100.00
62418;BME280;48456;54.242;10.280;2023-08-06T04:16:26;100471.94;;;14.08;100.00
62418;BME280;48456;54.242;10.280;2023-08-06T04:18:53;100468.41;;;14.08;100.00
62418;BME280;48456;54.242;10.280;2023-08-06T04:21:21;100472.72;;;14.12;100.00
62418;BME280;48456;54.242;10.280;2023-08-06T04:23:48;100464.72;;;14.13;100.00
62418;BME280;48456;54.242;10.280;2023-08-06T04:26:14;100469.19;;;14.13;100.00
62418;BME280;48456;54.242;10.280;2023-08-06T04:28:41;100470.94;;;14.14;100.00
62418;BME280;48456;54.242;10.280;2023-08-06T04:31:07;100467.31;;;14.16;100.00
62418;BME280;48456;54.242;10.280;2023-08-06T04:33:34;100460.22;;;14.17;100.00
62418;BME280;48456;54.242;10.280;2023-08-06T04:36:00;100469.03;;;14.19;100.00
62418;BME280;48456;54.242;10.280;2023-08-06T04:38:27;100478.81;;;14.19;100.00
62418;BME280;48456;54.242;10.280;2023-08-06T04:40:53;100467.25;;;14.20;100.00
62418;BME280;48456;54.242;10.280;2023-08-06T04:43:19;100474.31;;;14.21;100.00
62418;BME280;48456;54.242;10.280;2023-08-06T04:45:50;100469.81;;;14.23;100.00
62418;BME280;48456;54.242;10.280;2023-08-06T04:48:17;100473.28;;;14.26;100.00
62418;BME280;48456;54.242;10.280;2023-08-06T04:50:46;100466.13;;;14.28;100.00
62418;BME280;48456;54.242;10.280;2023-08-06T04:53:13;100475.81;;;14.31;100.00
62418;BME280;48456;54.242;10.280;2023-08-06T04:55:40;100478.41;;;14.34;100.00
62418;BME280;48456;54.242;10.280;2023-08-06T04:58:06;100478.38;;;14.36;100.00
62418;BME280;48456;54.242;10.280;2023-08-06T05:00:33;100478.31;;;14.39;100.00
62418;BME280;48456;54.242;10.280;2023-08-06T05:03:00;100468.44;;;14.42;100.00
62418;BME280;48456;54.242;10.280;2023-08-06T05:05:27;100467.44;;;14.47;100.00
62418;BME280;48456;54.242;10.280;2023-08-06T05:07:54;100467.38;;;14.50;100.00
62418;BME280;48456;54.242;10.280;2023-08-06T05:10:21;100464.66;;;14.53;100.00
62418;BME280;48456;54.242;10.280;2023-08-06T05:12:47;100464.53;;;14.56;100.00
62418;BME280;48456;54.242;10.280;2023-08-06T05:15:14;100458.31;;;14.57;100.00
62418;BME280;48456;54.242;10.280;2023-08-06T05:17:40;100462.66;;;14.61;100.00
62418;BME280;48456;54.242;10.280;2023-08-06T05:20:07;100463.44;;;14.65;100.00
62418;BME280;48456;54.242;10.280;2023-08-06T05:22:33;100458.13;;;14.65;100.00
62418;BME280;48456;54.242;10.280;2023-08-06T05:25:00;100462.50;;;14.66;100.00
62418;BME280;48456;54.242;10.280;2023-08-06T05:27:26;100451.78;;;14.69;100.00
62418;BME280;48456;54.242;10.280;2023-08-06T05:29:54;100456.94;;;14.75;100.00
62418;BME280;48456;54.242;10.280;2023-08-06T05:32:21;100444.50;;;14.76;100.00
62418;BME280;48456;54.242;10.280;2023-08-06T05:34:48;100443.47;;;14.83;100.00
62418;BME280;48456;54.242;10.280;2023-08-06T05:37:14;100456.66;;;14.86;100.00
62418;BME280;48456;54.242;10.280;2023-08-06T05:39:41;100457.56;;;14.87;100.00
62418;BME280;48456;54.242;10.280;2023-08-06T05:42:07;100463.66;;;14.90;100.00
62418;BME280;48456;54.242;10.280;2023-08-06T05:44:34;100451.97;;;14.96;100.00
62418;BME280;48456;54.242;10.280;2023-08-06T05:47:00;100450.91;;;15.02;100.00
62418;BME280;48456;54.242;10.280;2023-08-06T05:49:27;100452.53;;;15.07;100.00
62418;BME280;48456;54.242;10.280;2023-08-06T05:51:53;100455.00;;;15.14;100.00
62418;BME280;48456;54.242;10.280;2023-08-06T05:54:20;100451.34;;;15.18;100.00
62418;BME280;48456;54.242;10.280;2023-08-06T05:56:46;100453.03;;;15.20;100.00
62418;BME280;48456;54.242;10.280;2023-08-06T05:59:13;100453.66;;;15.30;100.00
62418;BME280;48456;54.242;10.280;2023-08-06T06:01:39;100455.38;;;15.31;100.00
62418;BME280;48456;54.242;10.280;2023-08-06T06:04:06;100460.63;;;15.35;100.00
62418;BME280;48456;54.242;10.280;2023-08-06T06:06:32;100455.19;;;15.39;100.00
62418;BME280;48456;54.242;10.280;2023-08-06T06:08:59;100458.47;;;15.48;100.00
62418;BME280;48456;54.242;10.280;2023-08-06T06:11:25;100454.69;;;15.55;100.00
62418;BME280;48456;54.242;10.280;2023-08-06T06:13:52;100460.91;;;15.55;100.00
62418;BME280;48456;54.242;10.280;2023-08-06T06:16:18;100453.53;;;15.64;100.00
62418;BME280;48456;54.242;10.280;2023-08-06T06:18:45;100451.47;;;15.74;100.00
62418;BME280;48456;54.242;10.280;2023-08-06T06:21:11;100448.50;;;15.83;100.00
62418;BME280;48456;54.242;10.280;2023-08-06T06:23:38;100450.09;;;15.89;100.00
62418;BME280;48456;54.242;10.280;2023-08-06T06:26:04;100444.72;;;15.90;100.00
62418;BME280;48456;54.242;10.280;2023-08-06T06:28:31;100448.00;;;16.00;100.00
62418;BME280;48456;54.242;10.280;2023-08-06T06:31:01;100449.56;;;16.06;100.00
62418;BME280;48456;54.242;10.280;2023-08-06T06:33:28;100447.66;;;16.11;100.00
62418;BME280;48456;54.242;10.280;2023-08-06T06:35:54;100446.56;;;16.17;100.00
62418;BME280;48456;54.242;10.280;2023-08-06T06:38:20;100447.34;;;16.20;100.00
62418;BME280;48456;54.242;10.280;2023-08-06T06:40:54;100450.66;;;16.27;100.00
62418;BME280;48456;54.242;10.280;2023-08-06T06:43:21;100447.63;;;16.38;100.00
62418;BME280;48456;54.242;10.280;2023-08-06T06:45:51;100444.88;;;16.41;100.00
62418;BME280;48456;54.242;10.280;2023-08-06T06:48:18;100441.16;;;16.45;100.00
62418;BME280;48456;54.242;10.280;2023-08-06T06:50:48;100448.25;;;16.46;100.00
62418;BME280;48456;54.242;10.280;2023-08-06T06:53:14;100448.13;;;16.49;100.00
62418;BME280;48456;54.242;10.280;2023-08-06T06:55:41;100452.31;;;16.57;100.00
62418;BME280;48456;54.242;10.280;2023-08-06T06:58:07;100453.91;;;16.62;100.00
62418;BME280;48456;54.242;10.280;2023-08-06T07:00:37;100443.22;;;16.62;100.00
62418;BME280;48456;54.242;10.280;2023-08-06T07:03:03;100439.56;;;16.65;100.00
62418;BME280;48456;54.242;10.280;2023-08-06T07:05:30;100445.94;;;16.61;100.00
62418;BME280;48456;54.242;10.280;2023-08-06T07:07:56;100445.69;;;16.69;100.00
62418;BME280;48456;54.242;10.280;2023-08-06T07:10:23;100436.00;;;16.66;100.00
62418;BME280;48456;54.242;10.280;2023-08-06T07:12:49;100439.41;;;16.70;100.00
62418;BME280;48456;54.242;10.280;2023-08-06T07:15:16;100454.69;;;16.66;100.00
62418;BME280;48456;54.242;10.280;2023-08-06T07:17:43;100452.00;;;16.66;100.00
62418;BME280;48456;54.242;10.280;2023-08-06T07:20:10;100453.84;;;16.64;100.00
62418;BME280;48456;54.242;10.280;2023-08-06T07:22:37;100445.69;;;16.69;100.00
62418;BME280;48456;54.242;10.280;2023-08-06T07:25:04;100446.44;;;16.72;100.00
62418;BME280;48456;54.242;10.280;2023-08-06T07:27:31;100448.03;;;16.78;100.00
62418;BME280;48456;54.242;10.280;2023-08-06T07:29:58;100442.63;;;16.80;100.00
62418;BME280;48456;54.242;10.280;2023-08-06T07:32:24;100442.34;;;16.87;100.00
62418;BME280;48456;54.242;10.280;2023-08-06T07:34:51;100440.16;;;16.99;100.00
62418;BME280;48456;54.242;10.280;2023-08-06T07:37:22;100442.88;;;16.97;100.00
62418;BME280;48456;54.242;10.280;2023-08-06T07:39:49;100438.97;;;17.08;100.00
62418;BME280;48456;54.242;10.280;2023-08-06T07:42:15;100438.69;;;17.16;100.00
62418;BME280;48456;54.242;10.280;2023-08-06T07:44:42;100429.00;;;17.13;100.00
62418;BME280;48456;54.242;10.280;2023-08-06T07:47:08;100433.88;;;17.25;100.00
62418;BME280;48456;54.242;10.280;2023-08-06T07:49:35;100437.34;;;17.51;100.00
62418;BME280;48456;54.242;10.280;2023-08-06T07:52:01;100440.81;;;17.53;100.00
62418;BME280;48456;54.242;10.280;2023-08-06T07:54:29;100433.91;;;17.70;100.00
62418;BME280;48456;54.242;10.280;2023-08-06T07:56:55;100432.69;;;17.79;100.00
62418;BME280;48456;54.242;10.280;2023-08-06T07:59:22;100435.28;;;17.80;100.00
62418;BME280;48456;54.242;10.280;2023-08-06T08:01:48;100434.16;;;17.86;100.00
62418;BME280;48456;54.242;10.280;2023-08-06T08:04:15;100438.34;;;17.93;100.00
62418;BME280;48456;54.242;10.280;2023-08-06T08:06:41;100426.06;;;17.88;100.00
62418;BME280;48456;54.242;10.280;2023-08-06T08:09:08;100434.59;;;17.75;100.00
62418;BME280;48456;54.242;10.280;2023-08-06T08:11:34;100435.78;;;17.68;100.00
62418;BME280;48456;54.242;10.280;2023-08-06T08:14:01;100436.84;;;17.64;100.00
62418;BME280;48456;54.242;10.280;2023-08-06T08:16:27;100428.75;;;17.65;100.00
62418;BME280;48456;54.242;10.280;2023-08-06T08:18:53;100431.13;;;17.73;100.00
62418;BME280;48456;54.242;10.280;2023-08-06T08:21:20;100429.13;;;17.78;100.00
62418;BME280;48456;54.242;10.280;2023-08-06T08:23:46;100425.94;;;17.91;100.00
62418;BME280;48456;54.242;10.280;2023-08-06T08:26:13;100428.97;;;18.04;100.00
62418;BME280;48456;54.242;10.280;2023-08-06T08:28:39;100426.69;;;18.17;100.00
62418;BME280;48456;54.242;10.280;2023-08-06T08:31:07;100424.91;;;18.17;100.00
62418;BME280;48456;54.242;10.280;2023-08-06T08:33:34;100430.88;;;18.24;100.00
62418;BME280;48456;54.242;10.280;2023-08-06T08:36:01;100432.31;;;18.31;100.00
62418;BME280;48456;54.242;10.280;2023-08-06T08:38:27;100426.72;;;18.38;100.00
62418;BME280;48456;54.242;10.280;2023-08-06T08:40:54;100423.03;;;18.40;100.00
62418;BME280;48456;54.242;10.280;2023-08-06T08:43:21;100409.00;;;18.56;100.00
62418;BME280;48456;54.242;10.280;2023-08-06T08:45:49;100415.47;;;18.71;100.00
62418;BME280;48456;54.242;10.280;2023-08-06T08:48:17;100414.41;;;18.75;100.00
62418;BME280;48456;54.242;10.280;2023-08-06T08:50:44;100411.78;;;18.74;100.00
62418;BME280;48456;54.242;10.280;2023-08-06T08:53:11;100410.91;;;18.73;100.00
62418;BME280;48456;54.242;10.280;2023-08-06T08:55:39;100419.81;;;18.74;100.00
62418;BME280;48456;54.242;10.280;2023-08-06T08:58:06;100411.84;;;18.72;100.00
62418;BME280;48456;54.242;10.280;2023-08-06T09:00:32;100410.31;;;18.66;100.00
62418;BME280;48456;54.242;10.280;2023-08-06T09:02:58;100408.75;;;18.81;100.00
62418;BME280;48456;54.242;10.280;2023-08-06T09:05:28;100417.25;;;18.91;100.00
62418;BME280;48456;54.242;10.280;2023-08-06T09:07:58;100418.72;;;18.99;100.00
62418;BME280;48456;54.242;10.280;2023-08-06T09:10:28;100405.44;;;18.95;100.00
62418;BME280;48456;54.242;10.280;2023-08-06T09:12:55;100415.09;;;19.00;100.00
62418;BME280;48456;54.242;10.280;2023-08-06T09:15:25;100410.41;;;18.84;100.00
62418;BME280;48456;54.242;10.280;2023-08-06T09:17:52;100417.72;;;18.80;100.00
62418;BME280;48456;54.242;10.280;2023-08-06T09:20:19;100416.72;;;18.83;100.00
62418;BME280;48456;54.242;10.280;2023-08-06T09:22:45;100414.53;;;18.72;100.00
62418;BME280;48456;54.242;10.280;2023-08-06T09:25:20;100412.50;;;18.77;100.00
62418;BME280;48456;54.242;10.280;2023-08-06T09:27:47;100412.72;;;18.73;100.00
62418;BME280;48456;54.242;10.280;2023-08-06T09:30:19;100420.47;;;18.79;100.00
62418;BME280;48456;54.242;10.280;2023-08-06T09:32:54;100406.56;;;18.70;100.00
62418;BME280;48456;54.242;10.280;2023-08-06T09:35:21;100412.19;;;18.64;100.00
62418;BME280;48456;54.242;10.280;2023-08-06T09:37:47;100420.75;;;18.73;100.00
62418;BME280;48456;54.242;10.280;2023-08-06T09:42:50;100412.38;;;18.80;100.00
62418;BME280;48456;54.242;10.280;2023-08-06T09:45:17;100405.38;;;18.97;100.00
62418;BME280;48456;54.242;10.280;2023-08-06T09:47:43;100411.28;;;19.05;100.00
62418;BME280;48456;54.242;10.280;2023-08-06T09:50:19;100403.28;;;19.04;100.00
62418;BME280;48456;54.242;10.280;2023-08-06T09:52:46;100414.31;;;19.17;100.00
62418;BME280;48456;54.242;10.280;2023-08-06T09:55:14;100413.03;;;19.06;100.00
62418;BME280;48456;54.242;10.280;2023-08-06T09:57:41;100411.53;;;18.99;100.00
62418;BME280;48456;54.242;10.280;2023-08-06T10:00:08;100413.91;;;19.07;100.00
62418;BME280;48456;54.242;10.280;2023-08-06T10:02:36;100405.63;;;19.12;100.00
62418;BME280;48456;54.242;10.280;2023-08-06T10:05:03;100404.53;;;19.16;100.00
62418;BME280;48456;54.242;10.280;2023-08-06T10:07:30;100404.28;;;19.22;100.00
62418;BME280;48456;54.242;10.280;2023-08-06T10:09:57;100403.59;;;19.17;100.00
62418;BME280;48456;54.242;10.280;2023-08-06T10:12:24;100398.47;;;19.12;100.00
62418;BME280;48456;54.242;10.280;2023-08-06T10:14:52;100405.34;;;19.18;100.00
62418;BME280;48456;54.242;10.280;2023-08-06T10:17:20;100402.00;;;19.13;100.00
62418;BME280;48456;54.242;10.280;2023-08-06T10:19:50;100405.94;;;19.05;100.00
62418;BME280;48456;54.242;10.280;2023-08-06T10:22:17;100398.53;;;19.11;100.00
62418;BME280;48456;54.242;10.280;2023-08-06T10:24:47;100396.56;;;19.14;100.00
62418;BME280;48456;54.242;10.280;2023-08-06T10:27:19;100395.41;;;19.20;100.00
62418;BME280;48456;54.242;10.280;2023-08-06T10:29:45;100394.31;;;19.24;100.00
62418;BME280;48456;54.242;10.280;2023-08-06T10:32:11;100393.88;;;19.33;100.00
62418;BME280;48456;54.242;10.280;2023-08-06T10:34:54;100400.03;;;19.55;100.00
62418;BME280;48456;54.242;10.280;2023-08-06T10:37:22;100395.13;;;19.82;100.00
62418;BME280;48456;54.242;10.280;2023-08-06T10:39:50;100391.41;;;19.85;100.00
62418;BME280;48456;54.242;10.280;2023-08-06T10:42:20;100379.16;;;19.98;100.00
62418;BME280;48456;54.242;10.280;2023-08-06T10:47:37;100391.66;;;20.17;100.00
62418;BME280;48456;54.242;10.280;2023-08-06T10:50:12;100381.94;;;19.78;100.00
62418;BME280;48456;54.242;10.280;2023-08-06T10:52:40;100383.78;;;19.95;100.00
62418;BME280;48456;54.242;10.280;2023-08-06T10:55:06;100377.47;;;19.96;100.00
62418;BME280;48456;54.242;10.280;2023-08-06T10:57:33;100384.28;;;20.03;100.00
62418;BME280;48456;54.242;10.280;2023-08-06T10:59:59;100377.41;;;20.33;100.00
62418;BME280;48456;54.242;10.280;2023-08-06T11:02:41;100369.88;;;20.57;100.00
62418;BME280;48456;54.242;10.280;2023-08-06T11:05:08;100374.47;;;20.89;100.00
62418;BME280;48456;54.242;10.280;2023-08-06T11:07:37;100367.13;;;20.93;100.00
62418;BME280;48456;54.242;10.280;2023-08-06T11:10:07;100371.47;;;21.11;100.00
62418;BME280;48456;54.242;10.280;2023-08-06T11:12:34;100358.41;;;21.21;100.00
62418;BME280;48456;54.242;10.280;2023-08-06T11:15:01;100354.47;;;21.43;100.00
62418;BME280;48456;54.242;10.280;2023-08-06T11:17:28;100358.09;;;21.74;100.00
62418;BME280;48456;54.242;10.280;2023-08-06T11:19:55;100355.56;;;21.87;100.00
62418;BME280;48456;54.242;10.280;2023-08-06T11:22:21;100353.19;;;21.97;100.00
62418;BME280;48456;54.242;10.280;2023-08-06T11:24:48;100359.41;;;22.14;100.00
62418;BME280;48456;54.242;10.280;2023-08-06T11:27:16;100353.63;;;22.20;100.00
62418;BME280;48456;54.242;10.280;2023-08-06T11:29:43;100344.72;;;22.49;100.00
62418;BME280;48456;54.242;10.280;2023-08-06T11:32:10;100350.91;;;22.65;100.00
62418;BME280;48456;54.242;10.280;2023-08-06T11:34:43;100343.19;;;23.03;100.00
62418;BME280;48456;54.242;10.280;2023-08-06T11:37:10;100352.03;;;23.19;100.00
62418;BME280;48456;54.242;10.280;2023-08-06T11:39:37;100344.91;;;23.18;100.00
62418;BME280;48456;54.242;10.280;2023-08-06T11:42:04;100351.84;;;23.08;100.00
62418;BME280;48456;54.242;10.280;2023-08-06T11:44:31;100347.66;;;22.60;100.00
62418;BME280;48456;54.242;10.280;2023-08-06T11:46:59;100350.84;;;22.07;100.00
62418;BME280;48456;54.242;10.280;2023-08-06T11:49:40;100352.72;;;21.74;100.00
62418;BME280;48456;54.242;10.280;2023-08-06T11:52:10;100349.53;;;21.51;100.00
62418;BME280;48456;54.242;10.280;2023-08-06T11:54:37;100345.19;;;21.00;100.00
62418;BME280;48456;54.242;10.280;2023-08-06T11:57:06;100350.06;;;21.10;100.00
62418;BME280;48456;54.242;10.280;2023-08-06T11:59:33;100345.88;;;21.04;100.00
62418;BME280;48456;54.242;10.280;2023-08-06T12:02:01;100342.06;;;21.08;100.00
62418;BME280;48456;54.242;10.280;2023-08-06T12:04:27;100336.63;;;20.76;100.00
62418;BME280;48456;54.242;10.280;2023-08-06T12:06:54;100338.25;;;20.96;100.00
62418;BME280;48456;54.242;10.280;2023-08-06T12:09:20;100338.16;;;21.14;100.00
62418;BME280;48456;54.242;10.280;2023-08-06T12:11:47;100329.88;;;21.65;100.00
62418;BME280;48456;54.242;10.280;2023-08-06T12:14:13;100324.03;;;21.89;100.00
62418;BME280;48456;54.242;10.280;2023-08-06T12:16:40;100327.00;;;22.44;100.00
62418;BME280;48456;54.242;10.280;2023-08-06T12:19:06;100322.63;;;22.58;100.00
62418;BME280;48456;54.242;10.280;2023-08-06T12:21:33;100320.84;;;22.42;100.00
62418;BME280;48456;54.242;10.280;2023-08-06T12:23:59;100309.91;;;22.60;100.00
62418;BME280;48456;54.242;10.280;2023-08-06T12:26:25;100313.34;;;22.33;100.00
62418;BME280;48456;54.242;10.280;2023-08-06T12:28:52;100316.22;;;22.44;100.00
62418;BME280;48456;54.242;10.280;2023-08-06T12:31:21;100305.69;;;22.56;100.00
62418;BME280;48456;54.242;10.280;2023-08-06T12:33:47;100305.75;;;22.40;100.00
62418;BME280;48456;54.242;10.280;2023-08-06T12:36:14;100316.75;;;21.91;100.00
62418;BME280;48456;54.242;10.280;2023-08-06T12:38:40;100318.13;;;21.99;100.00
62418;BME280;48456;54.242;10.280;2023-08-06T12:41:06;100309.66;;;22.05;100.00